sensor_id;sensor_type;location;lat;lon;timestamp;P1;durP1;ratioP1;P2;durP2;ratioP2
22916;SDS011;11624;53.250;7.456;2023-06-14T00:00:03;6.43;;;2.33;;
22916;SDS011;11624;53.250;7.456;2023-06-14T00:02:34;8.40;;;2.33;;
22916;SDS011;11624;53.250;7.456;2023-06-14T00:05:03;10.20;;;2.60;;
22916;SDS011;11624;53.250;7.456;2023-06-14T00:07:37;10.55;;;2.42;;
22916;SDS011;11624;53.250;7.456;2023-06-14T00:10:09;8.98;;;2.50;;
22916;SDS011;11624;53.250;7.456;2023-06-14T00:12:38;5.20;;;2.20;;
22916;SDS011;11624;53.250;7.456;2023-06-14T00:15:07;8.50;;;2.30;;
22916;SDS011;11624;53.250;7.456;2023-06-14T00:17:36;9.32;;;2.47;;
22916;SDS011;11624;53.250;7.456;2023-06-14T00:20:06;7.70;;;2.33;;
22916;SDS011;11624;53.250;7.456;2023-06-14T00:22:37;7.25;;;2.20;;
22916;SDS011;11624;53.250;7.456;2023-06-14T00:25:05;7.57;;;2.00;;
22916;SDS011;11624;53.250;7.456;2023-06-14T00:27:53;6.32;;;2.17;;
22916;SDS011;11624;53.250;7.456;2023-06-14T00:30:23;8.10;;;2.38;;
22916;SDS011;11624;53.250;7.456;2023-06-14T00:32:51;6.28;;;2.28;;
22916;SDS011;11624;53.250;7.456;2023-06-14T00:35:19;9.65;;;2.72;;
22916;SDS011;11624;53.250;7.456;2023-06-14T00:37:49;7.00;;;2.28;;
22916;SDS011;11624;53.250;7.456;2023-06-14T00:40:17;7.03;;;2.20;;
22916;SDS011;11624;53.250;7.456;2023-06-14T00:42:45;5.20;;;2.05;;
22916;SDS011;11624;53.250;7.456;2023-06-14T00:45:13;7.75;;;2.60;;
22916;SDS011;11624;53.250;7.456;2023-06-14T00:47:43;9.82;;;2.55;;
22916;SDS011;11624;53.250;7.456;2023-06-14T00:50:12;6.82;;;2.40;;
22916;SDS011;11624;53.250;7.456;2023-06-14T00:52:41;8.77;;;2.47;;
22916;SDS011;11624;53.250;7.456;2023-06-14T00:55:11;10.25;;;2.50;;
22916;SDS011;11624;53.250;7.456;2023-06-14T00:57:39;10.60;;;2.30;;
22916;SDS011;11624;53.250;7.456;2023-06-14T01:00:08;10.77;;;2.58;;
22916;SDS011;11624;53.250;7.456;2023-06-14T01:02:38;8.50;;;2.70;;
22916;SDS011;11624;53.250;7.456;2023-06-14T01:05:08;8.10;;;2.65;;
22916;SDS011;11624;53.250;7.456;2023-06-14T01:07:49;7.28;;;2.58;;
22916;SDS011;11624;53.250;7.456;2023-06-14T01:10:37;6.72;;;2.40;;
22916;SDS011;11624;53.250;7.456;2023-06-14T01:13:13;10.38;;;2.75;;
22916;SDS011;11624;53.250;7.456;2023-06-14T01:15:47;9.68;;;2.63;;
22916;SDS011;11624;53.250;7.456;2023-06-14T01:18:18;8.65;;;2.53;;
22916;SDS011;11624;53.250;7.456;2023-06-14T01:20:47;7.40;;;2.47;;
22916;SDS011;11624;53.250;7.456;2023-06-14T01:23:18;7.97;;;2.65;;
22916;SDS011;11624;53.250;7.456;2023-06-14T01:25:47;10.32;;;2.80;;
22916;SDS011;11624;53.250;7.456;2023-06-14T01:28:20;7.03;;;2.50;;
22916;SDS011;11624;53.250;7.456;2023-06-14T01:30:50;8.77;;;2.70;;
22916;SDS011;11624;53.250;7.456;2023-06-14T01:33:20;9.05;;;2.78;;
22916;SDS011;11624;53.250;7.456;2023-06-14T01:35:51;8.80;;;2.67;;
22916;SDS011;11624;53.250;7.456;2023-06-14T01:38:23;8.55;;;2.95;;
22916;SDS011;11624;53.250;7.456;2023-06-14T01:40:54;7.72;;;2.70;;
22916;SDS011;11624;53.250;7.456;2023-06-14T01:43:25;8.35;;;2.97;;
22916;SDS011;11624;53.250;7.456;2023-06-14T01:45:54;8.45;;;2.92;;
22916;SDS011;11624;53.250;7.456;2023-06-14T01:48:26;10.75;;;2.90;;
22916;SDS011;11624;53.250;7.456;2023-06-14T01:50:54;11.00;;;2.92;;
22916;SDS011;11624;53.250;7.456;2023-06-14T01:53:24;12.27;;;3.05;;
22916;SDS011;11624;53.250;7.456;2023-06-14T01:55:52;8.70;;;2.92;;
22916;SDS011;11624;53.250;7.456;2023-06-14T01:58:20;9.02;;;3.28;;
22916;SDS011;11624;53.250;7.456;2023-06-14T02:00:50;8.70;;;2.97;;
22916;SDS011;11624;53.250;7.456;2023-06-14T02:03:22;7.07;;;2.85;;
22916;SDS011;11624;53.250;7.456;2023-06-14T02:05:51;9.10;;;3.17;;
22916;SDS011;11624;53.250;7.456;2023-06-14T02:08:21;9.25;;;2.85;;
22916;SDS011;11624;53.250;7.456;2023-06-14T02:10:51;10.35;;;3.03;;
22916;SDS011;11624;53.250;7.456;2023-06-14T02:13:20;9.48;;;3.00;;
22916;SDS011;11624;53.250;7.456;2023-06-14T02:15:49;7.20;;;2.50;;
22916;SDS011;11624;53.250;7.456;2023-06-14T02:18:21;9.88;;;3.10;;
22916;SDS011;11624;53.250;7.456;2023-06-14T02:20:50;9.20;;;3.20;;
22916;SDS011;11624;53.250;7.456;2023-06-14T02:23:18;8.98;;;2.78;;
22916;SDS011;11624;53.250;7.456;2023-06-14T02:25:47;12.15;;;3.38;;
22916;SDS011;11624;53.250;7.456;2023-06-14T02:28:17;9.50;;;3.22;;
22916;SDS011;11624;53.250;7.456;2023-06-14T02:30:45;10.77;;;3.15;;
22916;SDS011;11624;53.250;7.456;2023-06-14T02:33:13;8.10;;;3.10;;
22916;SDS011;11624;53.250;7.456;2023-06-14T02:35:41;9.00;;;2.90;;
22916;SDS011;11624;53.250;7.456;2023-06-14T02:38:09;9.48;;;3.13;;
22916;SDS011;11624;53.250;7.456;2023-06-14T02:40:38;8.27;;;2.97;;
22916;SDS011;11624;53.250;7.456;2023-06-14T02:43:08;11.80;;;3.55;;
22916;SDS011;11624;53.250;7.456;2023-06-14T02:45:39;11.43;;;3.50;;
22916;SDS011;11624;53.250;7.456;2023-06-14T02:48:07;9.20;;;3.47;;
22916;SDS011;11624;53.250;7.456;2023-06-14T02:50:36;11.45;;;3.50;;
22916;SDS011;11624;53.250;7.456;2023-06-14T02:53:04;10.90;;;3.25;;
22916;SDS011;11624;53.250;7.456;2023-06-14T02:55:33;9.93;;;3.38;;
22916;SDS011;11624;53.250;7.456;2023-06-14T02:58:06;9.85;;;3.40;;
22916;SDS011;11624;53.250;7.456;2023-06-14T03:00:34;10.10;;;3.30;;
22916;SDS011;11624;53.250;7.456;2023-06-14T03:03:04;9.88;;;3.25;;
22916;SDS011;11624;53.250;7.456;2023-06-14T03:05:40;10.95;;;3.58;;
22916;SDS011;11624;53.250;7.456;2023-06-14T03:08:12;10.85;;;3.53;;
22916;SDS011;11624;53.250;7.456;2023-06-14T03:10:43;9.23;;;3.50;;
22916;SDS011;11624;53.250;7.456;2023-06-14T03:13:11;11.10;;;3.58;;
22916;SDS011;11624;53.250;7.456;2023-06-14T03:15:39;9.18;;;3.10;;
22916;SDS011;11624;53.250;7.456;2023-06-14T03:18:10;14.82;;;3.63;;
22916;SDS011;11624;53.250;7.456;2023-06-14T03:20:39;11.43;;;3.72;;
22916;SDS011;11624;53.250;7.456;2023-06-14T03:23:09;13.95;;;3.70;;
22916;SDS011;11624;53.250;7.456;2023-06-14T03:25:38;13.02;;;3.63;;
22916;SDS011;11624;53.250;7.456;2023-06-14T03:28:11;13.05;;;3.63;;
22916;SDS011;11624;53.250;7.456;2023-06-14T03:30:39;11.70;;;3.65;;
22916;SDS011;11624;53.250;7.456;2023-06-14T03:33:07;14.63;;;4.10;;
22916;SDS011;11624;53.250;7.456;2023-06-14T03:35:39;12.85;;;3.50;;
22916;SDS011;11624;53.250;7.456;2023-06-14T03:38:08;11.43;;;3.63;;
22916;SDS011;11624;53.250;7.456;2023-06-14T03:40:36;12.18;;;3.70;;
22916;SDS011;11624;53.250;7.456;2023-06-14T03:43:06;12.70;;;3.47;;
22916;SDS011;11624;53.250;7.456;2023-06-14T03:45:34;12.95;;;3.75;;
22916;SDS011;11624;53.250;7.456;2023-06-14T03:48:02;11.40;;;3.50;;
22916;SDS011;11624;53.250;7.456;2023-06-14T03:50:35;13.82;;;4.32;;
22916;SDS011;11624;53.250;7.456;2023-06-14T03:53:05;13.88;;;3.67;;
22916;SDS011;11624;53.250;7.456;2023-06-14T03:55:35;12.05;;;3.78;;
22916;SDS011;11624;53.250;7.456;2023-06-14T03:58:25;12.15;;;3.67;;
22916;SDS011;11624;53.250;7.456;2023-06-14T04:00:55;11.85;;;3.70;;
22916;SDS011;11624;53.250;7.456;2023-06-14T04:03:23;10.40;;;4.10;;
22916;SDS011;11624;53.250;7.456;2023-06-14T04:05:58;13.95;;;3.53;;
22916;SDS011;11624;53.250;7.456;2023-06-14T04:08:27;9.52;;;3.65;;
22916;SDS011;11624;53.250;7.456;2023-06-14T04:10:57;10.88;;;3.60;;
22916;SDS011;11624;53.250;7.456;2023-06-14T04:13:25;13.80;;;3.80;;
22916;SDS011;11624;53.250;7.456;2023-06-14T04:15:53;11.43;;;3.92;;
22916;SDS011;11624;53.250;7.456;2023-06-14T04:18:28;12.48;;;3.80;;
22916;SDS011;11624;53.250;7.456;2023-06-14T04:20:58;16.42;;;3.97;;
22916;SDS011;11624;53.250;7.456;2023-06-14T04:23:28;9.95;;;3.70;;
22916;SDS011;11624;53.250;7.456;2023-06-14T04:25:56;13.18;;;4.18;;
22916;SDS011;11624;53.250;7.456;2023-06-14T04:28:28;11.90;;;4.03;;
22916;SDS011;11624;53.250;7.456;2023-06-14T04:31:00;11.25;;;3.53;;
22916;SDS011;11624;53.250;7.456;2023-06-14T04:33:30;9.20;;;3.80;;
22916;SDS011;11624;53.250;7.456;2023-06-14T04:36:00;14.07;;;3.67;;
22916;SDS011;11624;53.250;7.456;2023-06-14T04:38:28;15.18;;;4.10;;
22916;SDS011;11624;53.250;7.456;2023-06-14T04:41:01;9.85;;;3.58;;
22916;SDS011;11624;53.250;7.456;2023-06-14T04:43:29;10.65;;;4.10;;
22916;SDS011;11624;53.250;7.456;2023-06-14T04:45:58;10.70;;;3.65;;
22916;SDS011;11624;53.250;7.456;2023-06-14T04:48:29;12.65;;;4.15;;
22916;SDS011;11624;53.250;7.456;2023-06-14T04:50:57;11.52;;;4.10;;
22916;SDS011;11624;53.250;7.456;2023-06-14T04:53:27;12.07;;;4.00;;
22916;SDS011;11624;53.250;7.456;2023-06-14T04:55:56;13.57;;;4.15;;
22916;SDS011;11624;53.250;7.456;2023-06-14T04:58:25;10.70;;;3.50;;
22916;SDS011;11624;53.250;7.456;2023-06-14T05:00:54;11.93;;;3.85;;
22916;SDS011;11624;53.250;7.456;2023-06-14T05:03:22;14.98;;;4.25;;
22916;SDS011;11624;53.250;7.456;2023-06-14T05:05:51;11.32;;;4.10;;
22916;SDS011;11624;53.250;7.456;2023-06-14T05:08:20;12.18;;;4.07;;
22916;SDS011;11624;53.250;7.456;2023-06-14T05:10:52;12.38;;;3.97;;
22916;SDS011;11624;53.250;7.456;2023-06-14T05:13:20;13.15;;;4.03;;
22916;SDS011;11624;53.250;7.456;2023-06-14T05:15:49;10.43;;;3.90;;
22916;SDS011;11624;53.250;7.456;2023-06-14T05:18:18;11.07;;;4.00;;
22916;SDS011;11624;53.250;7.456;2023-06-14T05:20:46;11.90;;;3.72;;
22916;SDS011;11624;53.250;7.456;2023-06-14T05:23:14;10.98;;;3.45;;
22916;SDS011;11624;53.250;7.456;2023-06-14T05:25:42;14.68;;;4.07;;
22916;SDS011;11624;53.250;7.456;2023-06-14T05:28:13;17.98;;;4.00;;
22916;SDS011;11624;53.250;7.456;2023-06-14T05:30:41;12.50;;;3.80;;
22916;SDS011;11624;53.250;7.456;2023-06-14T05:33:09;11.20;;;3.92;;
22916;SDS011;11624;53.250;7.456;2023-06-14T05:35:37;10.63;;;3.90;;
22916;SDS011;11624;53.250;7.456;2023-06-14T05:38:05;12.48;;;4.35;;
22916;SDS011;11624;53.250;7.456;2023-06-14T05:40:34;11.30;;;3.80;;
22916;SDS011;11624;53.250;7.456;2023-06-14T05:43:02;12.20;;;3.85;;
22916;SDS011;11624;53.250;7.456;2023-06-14T05:45:31;15.73;;;4.00;;
22916;SDS011;11624;53.250;7.456;2023-06-14T05:47:59;9.15;;;3.20;;
22916;SDS011;11624;53.250;7.456;2023-06-14T05:50:28;10.40;;;3.72;;
22916;SDS011;11624;53.250;7.456;2023-06-14T05:52:56;12.90;;;3.80;;
22916;SDS011;11624;53.250;7.456;2023-06-14T05:55:24;9.68;;;3.85;;
22916;SDS011;11624;53.250;7.456;2023-06-14T05:57:52;11.18;;;3.40;;
22916;SDS011;11624;53.250;7.456;2023-06-14T06:00:20;10.02;;;3.47;;
22916;SDS011;11624;53.250;7.456;2023-06-14T06:02:50;13.68;;;4.35;;
22916;SDS011;11624;53.250;7.456;2023-06-14T06:05:18;14.27;;;3.75;;
22916;SDS011;11624;53.250;7.456;2023-06-14T06:07:46;11.02;;;3.88;;
22916;SDS011;11624;53.250;7.456;2023-06-14T06:10:14;11.25;;;4.03;;
22916;SDS011;11624;53.250;7.456;2023-06-14T06:12:42;11.35;;;3.80;;
22916;SDS011;11624;53.250;7.456;2023-06-14T06:15:11;10.70;;;3.35;;
22916;SDS011;11624;53.250;7.456;2023-06-14T06:17:40;12.60;;;3.83;;
22916;SDS011;11624;53.250;7.456;2023-06-14T06:20:22;12.38;;;3.60;;
22916;SDS011;11624;53.250;7.456;2023-06-14T06:22:55;14.55;;;4.03;;
22916;SDS011;11624;53.250;7.456;2023-06-14T06:25:24;12.45;;;4.38;;
22916;SDS011;11624;53.250;7.456;2023-06-14T06:27:53;10.38;;;3.45;;
22916;SDS011;11624;53.250;7.456;2023-06-14T06:30:22;11.93;;;3.80;;
22916;SDS011;11624;53.250;7.456;2023-06-14T06:32:50;11.82;;;4.00;;
22916;SDS011;11624;53.250;7.456;2023-06-14T06:35:19;9.90;;;3.67;;
22916;SDS011;11624;53.250;7.456;2023-06-14T06:37:49;11.70;;;3.88;;
22916;SDS011;11624;53.250;7.456;2023-06-14T06:40:17;10.80;;;3.67;;
22916;SDS011;11624;53.250;7.456;2023-06-14T06:42:45;11.90;;;3.83;;
22916;SDS011;11624;53.250;7.456;2023-06-14T06:45:16;10.55;;;3.75;;
22916;SDS011;11624;53.250;7.456;2023-06-14T06:47:45;10.88;;;3.75;;
22916;SDS011;11624;53.250;7.456;2023-06-14T06:50:13;10.40;;;3.88;;
22916;SDS011;11624;53.250;7.456;2023-06-14T06:52:41;10.57;;;4.03;;
22916;SDS011;11624;53.250;7.456;2023-06-14T06:55:13;14.45;;;4.13;;
22916;SDS011;11624;53.250;7.456;2023-06-14T06:57:41;12.55;;;3.92;;
22916;SDS011;11624;53.250;7.456;2023-06-14T07:00:10;12.52;;;3.95;;
22916;SDS011;11624;53.250;7.456;2023-06-14T07:02:40;11.10;;;3.70;;
22916;SDS011;11624;53.250;7.456;2023-06-14T07:05:08;10.75;;;3.55;;
22916;SDS011;11624;53.250;7.456;2023-06-14T07:07:36;9.73;;;3.47;;
22916;SDS011;11624;53.250;7.456;2023-06-14T07:10:04;8.38;;;3.60;;
22916;SDS011;11624;53.250;7.456;2023-06-14T07:12:35;10.23;;;3.45;;
22916;SDS011;11624;53.250;7.456;2023-06-14T07:15:06;8.65;;;3.10;;
22916;SDS011;11624;53.250;7.456;2023-06-14T07:17:35;15.85;;;3.55;;
22916;SDS011;11624;53.250;7.456;2023-06-14T07:20:04;8.98;;;3.35;;
22916;SDS011;11624;53.250;7.456;2023-06-14T07:22:39;16.73;;;3.40;;
22916;SDS011;11624;53.250;7.456;2023-06-14T07:25:08;6.28;;;2.85;;
22916;SDS011;11624;53.250;7.456;2023-06-14T07:27:41;12.77;;;3.55;;
22916;SDS011;11624;53.250;7.456;2023-06-14T07:30:10;10.50;;;3.22;;
22916;SDS011;11624;53.250;7.456;2023-06-14T07:32:39;10.98;;;3.75;;
22916;SDS011;11624;53.250;7.456;2023-06-14T07:35:07;13.40;;;3.22;;
22916;SDS011;11624;53.250;7.456;2023-06-14T07:37:36;13.73;;;3.38;;
22916;SDS011;11624;53.250;7.456;2023-06-14T07:40:04;11.90;;;3.20;;
22916;SDS011;11624;53.250;7.456;2023-06-14T07:42:33;9.85;;;3.40;;
22916;SDS011;11624;53.250;7.456;2023-06-14T07:45:04;11.50;;;3.60;;
22916;SDS011;11624;53.250;7.456;2023-06-14T07:47:33;9.93;;;3.42;;
22916;SDS011;11624;53.250;7.456;2023-06-14T07:50:01;8.75;;;3.33;;
22916;SDS011;11624;53.250;7.456;2023-06-14T07:52:32;8.38;;;3.28;;
22916;SDS011;11624;53.250;7.456;2023-06-14T07:55:00;10.80;;;3.30;;
22916;SDS011;11624;53.250;7.456;2023-06-14T07:57:28;10.77;;;2.97;;
22916;SDS011;11624;53.250;7.456;2023-06-14T07:59:56;10.23;;;3.22;;
22916;SDS011;11624;53.250;7.456;2023-06-14T08:02:26;12.10;;;4.05;;
22916;SDS011;11624;53.250;7.456;2023-06-14T08:04:54;8.98;;;3.15;;
22916;SDS011;11624;53.250;7.456;2023-06-14T08:07:22;10.13;;;3.13;;
22916;SDS011;11624;53.250;7.456;2023-06-14T08:09:50;8.05;;;3.20;;
22916;SDS011;11624;53.250;7.456;2023-06-14T08:12:19;8.07;;;2.90;;
22916;SDS011;11624;53.250;7.456;2023-06-14T08:14:47;9.38;;;3.20;;
22916;SDS011;11624;53.250;7.456;2023-06-14T08:17:28;10.05;;;3.33;;
22916;SDS011;11624;53.250;7.456;2023-06-14T08:19:56;11.27;;;3.20;;
22916;SDS011;11624;53.250;7.456;2023-06-14T08:22:24;8.80;;;3.35;;
22916;SDS011;11624;53.250;7.456;2023-06-14T08:24:54;11.05;;;2.85;;
22916;SDS011;11624;53.250;7.456;2023-06-14T08:27:22;9.63;;;3.10;;
22916;SDS011;11624;53.250;7.456;2023-06-14T08:29:50;7.45;;;3.17;;
22916;SDS011;11624;53.250;7.456;2023-06-14T08:32:18;12.80;;;3.20;;
22916;SDS011;11624;53.250;7.456;2023-06-14T08:34:48;8.60;;;3.10;;
22916;SDS011;11624;53.250;7.456;2023-06-14T08:37:30;9.55;;;3.08;;
22916;SDS011;11624;53.250;7.456;2023-06-14T08:40:00;11.15;;;3.08;;
22916;SDS011;11624;53.250;7.456;2023-06-14T08:42:32;10.57;;;3.33;;
22916;SDS011;11624;53.250;7.456;2023-06-14T08:45:03;10.82;;;3.20;;
22916;SDS011;11624;53.250;7.456;2023-06-14T08:47:31;9.35;;;2.80;;
22916;SDS011;11624;53.250;7.456;2023-06-14T08:50:08;8.68;;;2.75;;
22916;SDS011;11624;53.250;7.456;2023-06-14T08:52:53;10.32;;;3.17;;
22916;SDS011;11624;53.250;7.456;2023-06-14T08:55:23;9.95;;;3.03;;
22916;SDS011;11624;53.250;7.456;2023-06-14T08:57:54;8.35;;;3.10;;
22916;SDS011;11624;53.250;7.456;2023-06-14T09:00:24;7.88;;;2.78;;
22916;SDS011;11624;53.250;7.456;2023-06-14T09:02:52;8.35;;;3.08;;
22916;SDS011;11624;53.250;7.456;2023-06-14T09:05:26;13.80;;;2.88;;
22916;SDS011;11624;53.250;7.456;2023-06-14T09:07:55;10.90;;;3.22;;
22916;SDS011;11624;53.250;7.456;2023-06-14T09:10:31;9.98;;;3.53;;
22916;SDS011;11624;53.250;7.456;2023-06-14T09:13:01;11.30;;;3.15;;
22916;SDS011;11624;53.250;7.456;2023-06-14T09:15:29;8.45;;;3.08;;
22916;SDS011;11624;53.250;7.456;2023-06-14T09:17:58;10.32;;;3.20;;
22916;SDS011;11624;53.250;7.456;2023-06-14T09:20:30;9.73;;;3.17;;
22916;SDS011;11624;53.250;7.456;2023-06-14T09:22:59;12.20;;;2.85;;
22916;SDS011;11624;53.250;7.456;2023-06-14T09:25:28;10.63;;;3.13;;
22916;SDS011;11624;53.250;7.456;2023-06-14T09:28:06;8.02;;;2.70;;
22916;SDS011;11624;53.250;7.456;2023-06-14T09:30:35;14.15;;;3.10;;
22916;SDS011;11624;53.250;7.456;2023-06-14T09:33:04;6.88;;;2.65;;
22916;SDS011;11624;53.250;7.456;2023-06-14T09:35:33;9.90;;;2.70;;
22916;SDS011;11624;53.250;7.456;2023-06-14T09:38:02;8.88;;;2.55;;
22916;SDS011;11624;53.250;7.456;2023-06-14T09:40:33;7.20;;;2.70;;
22916;SDS011;11624;53.250;7.456;2023-06-14T09:43:04;9.95;;;2.85;;
22916;SDS011;11624;53.250;7.456;2023-06-14T09:45:35;10.38;;;2.63;;
22916;SDS011;11624;53.250;7.456;2023-06-14T09:48:06;9.85;;;2.47;;
22916;SDS011;11624;53.250;7.456;2023-06-14T09:50:36;6.47;;;2.40;;
22916;SDS011;11624;53.250;7.456;2023-06-14T09:53:05;7.07;;;2.50;;
22916;SDS011;11624;53.250;7.456;2023-06-14T09:55:36;7.45;;;2.30;;
22916;SDS011;11624;53.250;7.456;2023-06-14T09:58:06;5.78;;;2.17;;
22916;SDS011;11624;53.250;7.456;2023-06-14T10:00:35;7.85;;;2.75;;
22916;SDS011;11624;53.250;7.456;2023-06-14T10:03:06;8.63;;;2.47;;
22916;SDS011;11624;53.250;7.456;2023-06-14T10:05:41;7.93;;;2.65;;
22916;SDS011;11624;53.250;7.456;2023-06-14T10:08:13;4.53;;;2.45;;
22916;SDS011;11624;53.250;7.456;2023-06-14T10:10:43;7.35;;;2.30;;
22916;SDS011;11624;53.250;7.456;2023-06-14T10:13:14;5.35;;;2.22;;
22916;SDS011;11624;53.250;7.456;2023-06-14T10:15:51;11.88;;;2.42;;
22916;SDS011;11624;53.250;7.456;2023-06-14T10:18:25;6.20;;;2.35;;
22916;SDS011;11624;53.250;7.456;2023-06-14T10:21:04;5.63;;;2.13;;
22916;SDS011;11624;53.250;7.456;2023-06-14T10:23:37;12.48;;;2.65;;
22916;SDS011;11624;53.250;7.456;2023-06-14T10:26:08;5.20;;;2.17;;
22916;SDS011;11624;53.250;7.456;2023-06-14T10:28:37;4.80;;;2.17;;
22916;SDS011;11624;53.250;7.456;2023-06-14T10:31:05;6.40;;;2.63;;
22916;SDS011;11624;53.250;7.456;2023-06-14T10:33:35;7.25;;;2.70;;
22916;SDS011;11624;53.250;7.456;2023-06-14T10:36:25;10.45;;;2.20;;
22916;SDS011;11624;53.250;7.456;2023-06-14T10:38:57;8.63;;;2.38;;
22916;SDS011;11624;53.250;7.456;2023-06-14T10:41:26;6.63;;;2.30;;
22916;SDS011;11624;53.250;7.456;2023-06-14T10:47:07;5.88;;;2.85;;
22916;SDS011;11624;53.250;7.456;2023-06-14T10:49:38;8.68;;;2.50;;
22916;SDS011;11624;53.250;7.456;2023-06-14T10:52:11;5.00;;;1.98;;
22916;SDS011;11624;53.250;7.456;2023-06-14T10:55:02;7.20;;;2.50;;
22916;SDS011;11624;53.250;7.456;2023-06-14T10:57:32;4.63;;;2.20;;
22916;SDS011;11624;53.250;7.456;2023-06-14T11:00:05;7.03;;;2.30;;
22916;SDS011;11624;53.250;7.456;2023-06-14T11:02:51;9.40;;;2.50;;
22916;SDS011;11624;53.250;7.456;2023-06-14T11:05:28;6.43;;;2.58;;
22916;SDS011;11624;53.250;7.456;2023-06-14T11:11:02;5.28;;;2.28;;
22916;SDS011;11624;53.250;7.456;2023-06-14T11:13:34;8.00;;;2.33;;
22916;SDS011;11624;53.250;7.456;2023-06-14T11:16:09;6.93;;;2.45;;
22916;SDS011;11624;53.250;7.456;2023-06-14T11:18:38;5.43;;;2.35;;
22916;SDS011;11624;53.250;7.456;2023-06-14T11:21:07;5.60;;;2.45;;
22916;SDS011;11624;53.250;7.456;2023-06-14T11:23:37;5.40;;;2.30;;
22916;SDS011;11624;53.250;7.456;2023-06-14T11:26:05;7.00;;;2.92;;
22916;SDS011;11624;53.250;7.456;2023-06-14T11:28:37;8.38;;;2.50;;
22916;SDS011;11624;53.250;7.456;2023-06-14T11:31:05;5.82;;;2.38;;
22916;SDS011;11624;53.250;7.456;2023-06-14T11:33:35;7.50;;;2.50;;
22916;SDS011;11624;53.250;7.456;2023-06-14T11:36:03;11.23;;;2.45;;
22916;SDS011;11624;53.250;7.456;2023-06-14T11:38:35;8.45;;;2.35;;
22916;SDS011;11624;53.250;7.456;2023-06-14T11:41:06;5.85;;;2.40;;
22916;SDS011;11624;53.250;7.456;2023-06-14T11:43:34;7.43;;;2.83;;
22916;SDS011;11624;53.250;7.456;2023-06-14T11:46:02;7.82;;;2.65;;
22916;SDS011;11624;53.250;7.456;2023-06-14T11:48:37;8.02;;;2.55;;
22916;SDS011;11624;53.250;7.456;2023-06-14T11:51:06;8.32;;;2.70;;
22916;SDS011;11624;53.250;7.456;2023-06-14T11:53:34;11.25;;;2.67;;
22916;SDS011;11624;53.250;7.456;2023-06-14T11:56:03;7.45;;;2.80;;
22916;SDS011;11624;53.250;7.456;2023-06-14T11:58:33;7.97;;;2.70;;
22916;SDS011;11624;53.250;7.456;2023-06-14T12:01:02;4.68;;;2.45;;
22916;SDS011;11624;53.250;7.456;2023-06-14T12:03:31;6.72;;;2.70;;
22916;SDS011;11624;53.250;7.456;2023-06-14T12:06:04;6.22;;;2.55;;
22916;SDS011;11624;53.250;7.456;2023-06-14T12:08:34;6.43;;;2.40;;
22916;SDS011;11624;53.250;7.456;2023-06-14T12:11:10;9.45;;;2.97;;
22916;SDS011;11624;53.250;7.456;2023-06-14T12:13:41;6.50;;;2.67;;
22916;SDS011;11624;53.250;7.456;2023-06-14T12:16:11;9.82;;;2.83;;
22916;SDS011;11624;53.250;7.456;2023-06-14T12:18:39;6.40;;;2.70;;
22916;SDS011;11624;53.250;7.456;2023-06-14T12:21:10;7.50;;;2.70;;
22916;SDS011;11624;53.250;7.456;2023-06-14T12:23:38;9.90;;;2.88;;
22916;SDS011;11624;53.250;7.456;2023-06-14T12:26:07;8.43;;;2.92;;
22916;SDS011;11624;53.250;7.456;2023-06-14T12:28:37;10.30;;;2.72;;
22916;SDS011;11624;53.250;7.456;2023-06-14T12:31:09;6.50;;;2.65;;
22916;SDS011;11624;53.250;7.456;2023-06-14T12:33:39;7.68;;;3.40;;
22916;SDS011;11624;53.250;7.456;2023-06-14T12:36:08;8.38;;;2.80;;
22916;SDS011;11624;53.250;7.456;2023-06-14T12:38:37;9.95;;;2.95;;
22916;SDS011;11624;53.250;7.456;2023-06-14T12:41:05;8.55;;;2.88;;
22916;SDS011;11624;53.250;7.456;2023-06-14T12:43:34;7.35;;;2.92;;
22916;SDS011;11624;53.250;7.456;2023-06-14T12:46:02;6.90;;;2.50;;
22916;SDS011;11624;53.250;7.456;2023-06-14T12:48:32;9.73;;;2.80;;
22916;SDS011;11624;53.250;7.456;2023-06-14T12:51:00;10.68;;;2.72;;
22916;SDS011;11624;53.250;7.456;2023-06-14T12:53:29;12.07;;;3.20;;
22916;SDS011;11624;53.250;7.456;2023-06-14T12:55:57;7.57;;;2.70;;
22916;SDS011;11624;53.250;7.456;2023-06-14T12:58:25;12.18;;;2.83;;
22916;SDS011;11624;53.250;7.456;2023-06-14T13:00:53;10.65;;;2.95;;
22916;SDS011;11624;53.250;7.456;2023-06-14T13:03:21;8.57;;;3.10;;
22916;SDS011;11624;53.250;7.456;2023-06-14T13:05:51;9.02;;;2.90;;
22916;SDS011;11624;53.250;7.456;2023-06-14T13:08:19;7.93;;;3.00;;
22916;SDS011;11624;53.250;7.456;2023-06-14T13:10:50;9.70;;;3.05;;
22916;SDS011;11624;53.250;7.456;2023-06-14T13:13:19;8.27;;;2.97;;
22916;SDS011;11624;53.250;7.456;2023-06-14T13:15:47;7.40;;;2.92;;
22916;SDS011;11624;53.250;7.456;2023-06-14T13:18:16;7.38;;;2.88;;
22916;SDS011;11624;53.250;7.456;2023-06-14T13:20:45;7.15;;;2.88;;
22916;SDS011;11624;53.250;7.456;2023-06-14T13:23:15;10.30;;;3.00;;
22916;SDS011;11624;53.250;7.456;2023-06-14T13:25:44;10.43;;;3.30;;
22916;SDS011;11624;53.250;7.456;2023-06-14T13:28:12;8.57;;;3.17;;
22916;SDS011;11624;53.250;7.456;2023-06-14T13:30:40;8.90;;;3.05;;
22916;SDS011;11624;53.250;7.456;2023-06-14T13:33:08;10.98;;;3.38;;
22916;SDS011;11624;53.250;7.456;2023-06-14T13:35:36;9.73;;;3.22;;
22916;SDS011;11624;53.250;7.456;2023-06-14T13:38:04;9.70;;;3.00;;
22916;SDS011;11624;53.250;7.456;2023-06-14T13:40:34;7.03;;;2.78;;
22916;SDS011;11624;53.250;7.456;2023-06-14T13:43:02;10.00;;;3.60;;
22916;SDS011;11624;53.250;7.456;2023-06-14T13:45:30;9.57;;;3.15;;
22916;SDS011;11624;53.250;7.456;2023-06-14T13:47:58;5.97;;;2.80;;
22916;SDS011;11624;53.250;7.456;2023-06-14T13:50:27;10.18;;;3.13;;
22916;SDS011;11624;53.250;7.456;2023-06-14T13:52:55;9.55;;;3.22;;
22916;SDS011;11624;53.250;7.456;2023-06-14T13:55:23;7.70;;;3.22;;
22916;SDS011;11624;53.250;7.456;2023-06-14T13:57:52;10.75;;;3.03;;
22916;SDS011;11624;53.250;7.456;2023-06-14T14:00:20;11.32;;;3.38;;
22916;SDS011;11624;53.250;7.456;2023-06-14T14:02:49;8.65;;;3.20;;
22916;SDS011;11624;53.250;7.456;2023-06-14T14:05:18;7.30;;;3.13;;
22916;SDS011;11624;53.250;7.456;2023-06-14T14:07:47;7.35;;;3.30;;
22916;SDS011;11624;53.250;7.456;2023-06-14T14:10:15;7.57;;;3.20;;
22916;SDS011;11624;53.250;7.456;2023-06-14T14:12:45;8.20;;;3.28;;
22916;SDS011;11624;53.250;7.456;2023-06-14T14:15:17;7.50;;;2.88;;
22916;SDS011;11624;53.250;7.456;2023-06-14T14:17:45;10.45;;;2.90;;
22916;SDS011;11624;53.250;7.456;2023-06-14T14:20:14;11.10;;;3.38;;
22916;SDS011;11624;53.250;7.456;2023-06-14T14:22:43;6.97;;;3.08;;
22916;SDS011;11624;53.250;7.456;2023-06-14T14:25:12;9.93;;;3.30;;
22916;SDS011;11624;53.250;7.456;2023-06-14T14:27:40;9.05;;;3.42;;
22916;SDS011;11624;53.250;7.456;2023-06-14T14:30:09;7.63;;;3.40;;
22916;SDS011;11624;53.250;7.456;2023-06-14T14:32:40;7.35;;;3.20;;
22916;SDS011;11624;53.250;7.456;2023-06-14T14:35:08;9.50;;;3.13;;
22916;SDS011;11624;53.250;7.456;2023-06-14T14:37:37;10.57;;;3.35;;
22916;SDS011;11624;53.250;7.456;2023-06-14T14:40:06;9.20;;;3.50;;
22916;SDS011;11624;53.250;7.456;2023-06-14T14:42:36;7.28;;;3.10;;
22916;SDS011;11624;53.250;7.456;2023-06-14T14:45:05;7.55;;;3.08;;
22916;SDS011;11624;53.250;7.456;2023-06-14T14:47:34;9.00;;;3.17;;
22916;SDS011;11624;53.250;7.456;2023-06-14T14:50:04;9.35;;;3.50;;
22916;SDS011;11624;53.250;7.456;2023-06-14T14:52:35;10.10;;;3.03;;
22916;SDS011;11624;53.250;7.456;2023-06-14T14:55:03;5.97;;;3.13;;
22916;SDS011;11624;53.250;7.456;2023-06-14T14:57:33;10.23;;;3.53;;
22916;SDS011;11624;53.250;7.456;2023-06-14T15:00:03;11.20;;;3.22;;
22916;SDS011;11624;53.250;7.456;2023-06-14T15:02:32;9.13;;;3.50;;